createdAt,value
2023-02-23T00:00:58.156Z,13.72
2023-02-23T00:03:26.231Z,13.73
2023-02-23T00:05:54.854Z,13.76
2023-02-23T00:08:23.394Z,13.78
2023-02-23T00:10:51.293Z,13.81
2023-02-23T00:13:19.486Z,13.83
2023-02-23T00:15:47.513Z,13.84
2023-02-23T00:18:15.674Z,13.85
2023-02-23T00:20:43.794Z,13.84
2023-02-23T00:23:11.823Z,13.82
2023-02-23T00:25:39.856Z,13.81
2023-02-23T00:28:07.852Z,13.82
2023-02-23T00:30:35.853Z,13.83
2023-02-23T00:33:03.934Z,13.84
2023-02-23T00:35:33.140Z,13.85
2023-02-23T00:38:01.116Z,13.87
2023-02-23T00:40:29.091Z,13.89
2023-02-23T00:42:57.272Z,13.90
2023-02-23T00:45:25.300Z,13.92
2023-02-23T00:47:53.316Z,13.94
2023-02-23T00:50:21.370Z,13.95
2023-02-23T00:52:49.336Z,13.98
2023-02-23T00:55:18.117Z,13.99
2023-02-23T00:57:47.140Z,13.99
2023-02-23T01:00:15.365Z,13.99
2023-02-23T01:02:43.563Z,14.00
2023-02-23T01:05:11.862Z,14.02
2023-02-23T01:07:40.818Z,14.03
2023-02-23T01:10:09.150Z,14.03
2023-02-23T01:12:37.710Z,14.05
2023-02-23T01:15:06.404Z,14.08
2023-02-23T01:17:34.392Z,14.09
2023-02-23T01:20:02.866Z,14.10
2023-02-23T01:22:31.761Z,14.10
2023-02-23T01:24:59.768Z,14.10
2023-02-23T01:27:28.015Z,14.12
2023-02-23T01:29:56.035Z,14.13
2023-02-23T01:32:24.041Z,14.13
2023-02-23T01:34:52.181Z,14.15
2023-02-23T01:37:20.776Z,14.17
2023-02-23T01:39:48.812Z,14.19
2023-02-23T01:42:16.952Z,14.21
2023-02-23T01:44:44.938Z,14.22
2023-02-23T01:47:13.852Z,14.23
2023-02-23T01:49:42.079Z,14.24
2023-02-23T01:52:11.614Z,14.23
2023-02-23T01:54:44.006Z,14.20
2023-02-23T01:57:14.628Z,14.18
2023-02-23T01:59:44.154Z,14.17
2023-02-23T02:02:12.908Z,14.16
2023-02-23T02:04:42.403Z,14.18
2023-02-23T02:07:15.008Z,14.19
2023-02-23T02:09:44.492Z,14.19
2023-02-23T02:12:12.575Z,14.19
2023-02-23T02:14:40.517Z,14.16
2023-02-23T02:17:27.895Z,14.14
2023-02-23T02:20:05.108Z,14.09
2023-02-23T02:22:33.041Z,14.05
2023-02-23T02:25:19.653Z,14.04
2023-02-23T02:28:17.010Z,14.02
2023-02-23T02:31:04.071Z,14.01
2023-02-23T02:33:32.225Z,14.01
2023-02-23T02:36:19.327Z,14.00
2023-02-23T02:38:55.198Z,13.99
2023-02-23T02:41:49.856Z,13.99
2023-02-23T02:44:20.686Z,13.98
2023-02-23T02:46:54.085Z,13.96
2023-02-23T02:49:51.674Z,13.92
2023-02-23T02:52:40.233Z,13.89
2023-02-23T02:55:17.752Z,13.88
2023-02-23T02:57:46.704Z,13.87
2023-02-23T03:00:18.699Z,13.87
2023-02-23T03:02:48.540Z,13.88
2023-02-23T03:05:18.634Z,13.86
2023-02-23T03:08:05.975Z,13.86
2023-02-23T03:10:41.554Z,13.86
2023-02-23T03:13:19.566Z,13.87
2023-02-23T03:15:53.643Z,13.87
2023-02-23T03:18:51.151Z,13.87
2023-02-23T03:21:24.082Z,13.86
2023-02-23T03:23:55.093Z,13.85
2023-02-23T03:26:29.278Z,13.84
2023-02-23T03:29:24.388Z,13.84
2023-02-23T03:32:01.385Z,13.85
2023-02-23T03:34:35.922Z,13.86
2023-02-23T03:37:13.039Z,13.89
2023-02-23T03:39:43.987Z,13.91
2023-02-23T03:42:15.955Z,13.93
2023-02-23T03:44:46.664Z,13.94
2023-02-23T03:47:16.497Z,13.94
2023-02-23T03:49:47.005Z,13.94
2023-02-23T03:52:17.711Z,13.94
2023-02-23T03:54:49.931Z,13.95
2023-02-23T03:57:19.707Z,13.93
2023-02-23T03:59:51.350Z,13.92
2023-02-23T04:02:21.646Z,13.92
2023-02-23T04:04:50.419Z,13.92
2023-02-23T04:07:19.597Z,13.92
2023-02-23T04:09:48.652Z,13.93
2023-02-23T04:12:28.197Z,13.94
2023-02-23T04:15:04.696Z,13.95
2023-02-23T04:17:33.411Z,13.95
2023-02-23T04:20:01.455Z,13.95
2023-02-23T04:22:30.255Z,13.96
2023-02-23T04:24:58.261Z,13.98
2023-02-23T04:27:26.565Z,13.99
2023-02-23T04:29:54.637Z,14.01
2023-02-23T04:32:23.475Z,14.02
2023-02-23T04:34:52.116Z,14.00
2023-02-23T04:37:20.139Z,14.01
2023-02-23T04:39:48.359Z,14.01
2023-02-23T04:42:17.976Z,14.00
2023-02-23T04:44:46.558Z,14.01
2023-02-23T04:47:15.411Z,14.02
2023-02-23T04:49:44.472Z,14.02
2023-02-23T04:52:13.338Z,14.01
2023-02-23T04:54:41.641Z,14.00
2023-02-23T04:57:09.892Z,14.00
2023-02-23T04:59:38.052Z,13.99
2023-02-23T05:02:06.223Z,13.97
2023-02-23T05:04:34.256Z,13.96
2023-02-23T05:07:02.360Z,13.95
2023-02-23T05:09:31.479Z,13.93
2023-02-23T05:11:59.602Z,13.93
2023-02-23T05:14:27.891Z,13.92
2023-02-23T05:16:56.049Z,13.92
2023-02-23T05:19:24.092Z,13.90
2023-02-23T05:21:52.595Z,13.88
2023-02-23T05:24:21.229Z,13.86
2023-02-23T05:26:49.824Z,13.84
2023-02-23T05:29:19.108Z,13.82
2023-02-23T05:31:47.886Z,13.81
2023-02-23T05:34:16.388Z,13.80
2023-02-23T05:36:44.507Z,13.79
2023-02-23T05:39:13.337Z,13.78
2023-02-23T05:41:41.401Z,13.78
2023-02-23T05:44:09.791Z,13.77
2023-02-23T05:46:38.405Z,13.76
2023-02-23T05:49:07.007Z,13.77
2023-02-23T05:51:36.259Z,13.76
2023-02-23T05:54:04.734Z,13.76
2023-02-23T05:56:32.767Z,13.75
2023-02-23T05:59:00.954Z,13.73
2023-02-23T06:01:29.041Z,13.73
2023-02-23T06:03:57.068Z,13.73
2023-02-23T06:06:25.240Z,13.74
2023-02-23T06:08:53.591Z,13.74
2023-02-23T06:11:22.170Z,13.73
2023-02-23T06:13:50.340Z,13.73
2023-02-23T06:16:18.661Z,13.73
2023-02-23T06:18:46.927Z,13.71
2023-02-23T06:21:14.961Z,13.72
2023-02-23T06:23:43.676Z,13.71
2023-02-23T06:26:11.789Z,13.71
2023-02-23T06:28:39.804Z,13.70
2023-02-23T06:31:08.424Z,13.68
2023-02-23T06:33:36.677Z,13.67
2023-02-23T06:36:05.524Z,13.66
2023-02-23T06:38:33.719Z,13.66
2023-02-23T06:41:07.346Z,13.66
2023-02-23T06:43:35.896Z,13.65
2023-02-23T06:46:04.326Z,13.66
2023-02-23T06:48:32.951Z,13.65
2023-02-23T06:51:01.112Z,13.66
2023-02-23T06:53:29.498Z,13.66
2023-02-23T06:55:59.253Z,13.68
2023-02-23T06:58:28.053Z,13.69
2023-02-23T07:00:57.320Z,13.70
2023-02-23T07:03:25.800Z,13.70
2023-02-23T07:05:53.833Z,13.71
2023-02-23T07:08:21.926Z,13.72
2023-02-23T07:10:50.558Z,13.73
2023-02-23T07:13:19.694Z,13.76
2023-02-23T07:15:47.801Z,13.76
2023-02-23T07:18:15.739Z,13.79
2023-02-23T07:20:44.150Z,13.82
2023-02-23T07:23:12.636Z,13.84
2023-02-23T07:25:41.426Z,13.86
2023-02-23T07:28:11.403Z,13.87
2023-02-23T07:30:40.625Z,13.89
2023-02-23T07:33:09.270Z,13.91
2023-02-23T07:35:37.434Z,13.93
2023-02-23T07:38:05.459Z,13.95
2023-02-23T07:40:33.500Z,13.96
2023-02-23T07:43:01.971Z,13.99
2023-02-23T07:45:31.535Z,14.01
2023-02-23T07:48:00.096Z,14.03
2023-02-23T07:50:28.846Z,14.06
2023-02-23T07:52:59.010Z,14.09
2023-02-23T07:55:27.362Z,14.11
2023-02-23T07:57:56.943Z,14.15
2023-02-23T08:00:24.933Z,14.19
2023-02-23T08:02:53.099Z,14.22
2023-02-23T08:05:21.580Z,14.25
2023-02-23T08:07:50.164Z,14.27
2023-02-23T08:10:18.214Z,14.28
2023-02-23T08:12:46.479Z,14.29
2023-02-23T08:15:14.966Z,14.30
2023-02-23T08:17:43.733Z,14.30
2023-02-23T08:20:12.246Z,14.30
2023-02-23T08:22:49.488Z,14.31
2023-02-23T08:25:18.853Z,14.33
2023-02-23T08:27:47.350Z,14.34
2023-02-23T08:30:16.786Z,14.36
2023-02-23T08:32:44.945Z,14.38
2023-02-23T08:35:13.899Z,14.39
2023-02-23T08:37:41.880Z,14.39
2023-02-23T08:40:11.067Z,14.40
2023-02-23T08:42:39.095Z,14.41
2023-02-23T08:45:09.019Z,14.42
2023-02-23T08:47:37.147Z,14.44
2023-02-23T08:50:05.699Z,14.45
2023-02-23T08:52:34.073Z,14.45
2023-02-23T08:55:02.825Z,14.47
2023-02-23T08:57:33.383Z,14.50
2023-02-23T09:00:01.646Z,14.51
2023-02-23T09:02:30.408Z,14.52
2023-02-23T09:04:58.419Z,14.52
2023-02-23T09:07:26.922Z,14.54
2023-02-23T09:09:57.020Z,14.55
2023-02-23T09:12:25.517Z,14.56
2023-02-23T09:14:54.204Z,14.59
2023-02-23T09:17:23.520Z,14.62
2023-02-23T09:19:52.450Z,14.68
2023-02-23T09:22:20.699Z,14.76
2023-02-23T09:24:49.414Z,14.86
2023-02-23T09:27:17.514Z,14.96
2023-02-23T09:29:46.652Z,15.09
2023-02-23T09:32:16.024Z,15.24
2023-02-23T09:34:44.815Z,15.41
2023-02-23T09:37:12.996Z,15.63
2023-02-23T09:39:41.780Z,15.85
2023-02-23T09:42:16.178Z,16.09
2023-02-23T09:44:54.280Z,16.33
2023-02-23T09:47:32.786Z,16.56
2023-02-23T09:50:03.702Z,16.78
2023-02-23T09:52:44.181Z,16.93
2023-02-23T09:55:14.015Z,17.05
2023-02-23T09:57:44.590Z,17.16
2023-02-23T10:00:17.343Z,17.26
2023-02-23T10:02:51.388Z,17.38
2023-02-23T10:05:19.659Z,17.50
2023-02-23T10:08:15.276Z,17.60
2023-02-23T10:11:03.414Z,17.69
2023-02-23T10:13:34.164Z,17.75
2023-02-23T10:16:11.710Z,17.83
2023-02-23T10:18:58.577Z,17.94
2023-02-23T10:21:36.569Z,18.05
2023-02-23T10:24:09.481Z,18.18
2023-02-23T10:26:51.275Z,18.32
2023-02-23T10:29:22.175Z,18.45
2023-02-23T10:31:54.461Z,18.63
2023-02-23T10:34:24.363Z,18.79
2023-02-23T10:36:58.985Z,18.94
2023-02-23T10:39:27.733Z,19.12
2023-02-23T10:41:58.024Z,19.45
2023-02-23T10:44:28.596Z,19.67
2023-02-23T10:47:02.088Z,19.84
2023-02-23T10:49:43.880Z,19.98
2023-02-23T10:52:15.220Z,20.10
2023-02-23T10:54:52.820Z,20.16
2023-02-23T10:57:27.113Z,20.16
2023-02-23T11:00:18.117Z,20.04
2023-02-23T11:02:48.158Z,19.87
2023-02-23T11:05:45.557Z,19.70
2023-02-23T11:08:21.174Z,19.50
2023-02-23T11:11:22.426Z,19.46
2023-02-23T11:13:50.634Z,19.45
2023-02-23T11:16:20.350Z,19.45
2023-02-23T11:18:52.616Z,19.44
2023-02-23T11:21:26.036Z,19.40
2023-02-23T11:23:56.102Z,19.38
2023-02-23T11:26:28.990Z,19.33
2023-02-23T11:29:04.556Z,19.28
2023-02-23T11:31:35.031Z,19.28
2023-02-23T11:34:05.687Z,19.33
2023-02-23T11:36:34.851Z,19.41
2023-02-23T11:39:02.802Z,19.43
2023-02-23T11:41:31.284Z,19.42
2023-02-23T11:44:00.362Z,19.38
2023-02-23T11:46:29.743Z,19.30
2023-02-23T11:49:03.113Z,19.35
2023-02-23T11:51:36.071Z,19.42
2023-02-23T11:54:06.054Z,19.42
2023-02-23T11:56:35.577Z,19.41
2023-02-23T11:59:05.527Z,19.37
2023-02-23T12:01:47.468Z,19.31
2023-02-23T12:04:28.083Z,19.15
2023-02-23T12:07:16.399Z,18.96
2023-02-23T12:09:46.953Z,18.87
2023-02-23T12:12:21.868Z,18.85
2023-02-23T12:14:53.789Z,18.79
2023-02-23T12:17:25.714Z,18.72
2023-02-23T12:20:06.535Z,18.69
2023-02-23T12:22:38.522Z,18.68
2023-02-23T12:25:14.554Z,18.55
2023-02-23T12:28:17.901Z,18.46
2023-02-23T12:30:50.696Z,18.55
2023-02-23T12:33:28.452Z,18.61
2023-02-23T12:36:01.468Z,18.79
2023-02-23T12:38:48.340Z,19.04
2023-02-23T12:41:25.803Z,19.28
2023-02-23T12:44:02.627Z,19.55
2023-02-23T12:46:34.573Z,19.81
2023-02-23T12:49:02.533Z,20.05
2023-02-23T12:51:41.715Z,20.36
2023-02-23T12:54:17.526Z,20.65
2023-02-23T12:56:48.290Z,20.78
2023-02-23T12:59:25.408Z,20.96
2023-02-23T13:01:59.707Z,21.28
2023-02-23T13:04:28.435Z,21.51
2023-02-23T13:07:15.300Z,21.60
2023-02-23T13:10:02.267Z,21.58
2023-02-23T13:12:50.470Z,21.61
2023-02-23T13:15:28.247Z,21.76
2023-02-23T13:18:14.871Z,21.80
2023-02-23T13:21:06.011Z,21.72
2023-02-23T13:23:57.426Z,21.72
2023-02-23T13:26:54.847Z,21.73
2023-02-23T13:29:42.774Z,21.90
2023-02-23T13:32:16.605Z,21.97
2023-02-23T13:34:54.721Z,21.84
2023-02-23T13:37:25.645Z,21.70
2023-02-23T13:40:15.921Z,21.49
2023-02-23T13:42:47.595Z,21.24
2023-02-23T13:45:31.617Z,21.10
2023-02-23T13:47:59.476Z,20.96
2023-02-23T13:50:42.951Z,20.79
2023-02-23T13:53:27.490Z,20.58
2023-02-23T13:55:58.953Z,20.40
2023-02-23T13:58:29.136Z,20.25
2023-02-23T14:01:16.611Z,20.23
2023-02-23T14:03:53.131Z,20.33
2023-02-23T14:06:23.405Z,20.48
2023-02-23T14:08:54.840Z,20.57
2023-02-23T14:11:38.285Z,20.63
2023-02-23T14:14:06.472Z,20.54
2023-02-23T14:16:34.522Z,20.32
2023-02-23T14:19:09.963Z,20.10
2023-02-23T14:21:43.619Z,19.84
2023-02-23T14:24:20.959Z,19.58
2023-02-23T14:27:38.425Z,19.40
2023-02-23T14:30:20.940Z,19.26
2023-02-23T14:32:50.365Z,19.27
2023-02-23T14:35:34.138Z,19.32
2023-02-23T14:38:05.166Z,19.29
2023-02-23T14:40:34.749Z,19.17
2023-02-23T14:43:03.649Z,19.05
2023-02-23T14:45:36.651Z,18.88
2023-02-23T14:48:12.575Z,18.82
2023-02-23T14:50:40.932Z,18.85
2023-02-23T14:53:29.194Z,18.87
2023-02-23T14:55:58.755Z,18.95
2023-02-23T14:58:28.767Z,18.97
2023-02-23T15:00:56.946Z,18.99
2023-02-23T15:03:26.199Z,18.97
2023-02-23T15:05:58.969Z,18.94
2023-02-23T15:08:29.228Z,18.93
2023-02-23T15:11:07.492Z,18.88
2023-02-23T15:13:40.495Z,18.82
2023-02-23T15:16:16.512Z,18.77
2023-02-23T15:18:44.946Z,18.69
2023-02-23T15:21:16.468Z,18.61
2023-02-23T15:23:46.164Z,18.58
2023-02-23T15:26:24.144Z,18.56
2023-02-23T15:28:53.194Z,18.65
2023-02-23T15:31:21.563Z,18.84
2023-02-23T15:33:49.838Z,19.05
2023-02-23T15:36:20.932Z,19.18
2023-02-23T15:38:51.053Z,19.26
2023-02-23T15:41:33.218Z,19.39
2023-02-23T15:44:13.452Z,19.49
2023-02-23T15:46:43.068Z,19.57
2023-02-23T15:49:12.479Z,19.63
2023-02-23T15:51:51.205Z,19.67
2023-02-23T15:54:22.535Z,19.67
2023-02-23T15:56:55.550Z,19.61
2023-02-23T15:59:28.666Z,19.52
2023-02-23T16:01:59.601Z,19.42
2023-02-23T16:04:32.844Z,19.37
2023-02-23T16:07:09.076Z,19.29
2023-02-23T16:09:40.054Z,19.23
2023-02-23T16:12:08.176Z,19.16
2023-02-23T16:14:54.774Z,19.04
2023-02-23T16:17:34.410Z,18.93
2023-02-23T16:20:20.921Z,18.83
2023-02-23T16:22:49.983Z,18.72
2023-02-23T16:25:18.848Z,18.65
2023-02-23T16:27:51.081Z,18.61
2023-02-23T16:30:23.715Z,18.56
2023-02-23T16:33:11.258Z,18.50
2023-02-23T16:35:43.684Z,18.46
2023-02-23T16:38:28.854Z,18.43
2023-02-23T16:40:56.891Z,18.37
2023-02-23T16:43:25.072Z,18.28
2023-02-23T16:45:53.220Z,18.17
2023-02-23T16:48:21.213Z,18.02
2023-02-23T16:50:49.411Z,17.87
2023-02-23T16:53:17.759Z,17.75
2023-02-23T16:55:48.941Z,17.65
2023-02-23T16:58:19.755Z,17.51
2023-02-23T17:00:47.723Z,17.35
2023-02-23T17:03:23.280Z,17.27
2023-02-23T17:05:52.003Z,17.23
2023-02-23T17:08:20.000Z,17.20
2023-02-23T17:10:49.400Z,17.14
2023-02-23T17:13:22.464Z,17.08
2023-02-23T17:15:52.908Z,17.01
2023-02-23T17:18:22.082Z,16.93
2023-02-23T17:20:51.160Z,16.82
2023-02-23T17:23:20.663Z,16.74
2023-02-23T17:25:48.688Z,16.68
2023-02-23T17:28:16.669Z,16.61
2023-02-23T17:30:45.745Z,16.51
2023-02-23T17:33:14.574Z,16.43
2023-02-23T17:35:42.729Z,16.34
2023-02-23T17:38:10.845Z,16.25
2023-02-23T17:40:39.348Z,16.17
2023-02-23T17:43:08.901Z,16.11
2023-02-23T17:45:37.046Z,16.03
2023-02-23T17:48:05.892Z,15.96
2023-02-23T17:50:33.886Z,15.89
2023-02-23T17:53:02.256Z,15.83
2023-02-23T17:55:30.163Z,15.79
2023-02-23T17:57:58.373Z,15.75
2023-02-23T18:00:26.980Z,15.72
2023-02-23T18:02:54.969Z,15.68
2023-02-23T18:05:23.085Z,15.64
2023-02-23T18:07:51.555Z,15.59
2023-02-23T18:10:19.577Z,15.56
2023-02-23T18:12:47.538Z,15.53
2023-02-23T18:15:15.729Z,15.49
2023-02-23T18:17:43.955Z,15.46
2023-02-23T18:20:12.873Z,15.44
2023-02-23T18:22:41.896Z,15.41
2023-02-23T18:25:20.495Z,15.39
2023-02-23T18:27:50.232Z,15.37
2023-02-23T18:30:18.764Z,15.34
2023-02-23T18:32:46.787Z,15.31
2023-02-23T18:35:14.921Z,15.30
2023-02-23T18:37:43.163Z,15.29
2023-02-23T18:40:11.822Z,15.27
2023-02-23T18:42:40.036Z,15.23
2023-02-23T18:45:08.292Z,15.20
2023-02-23T18:47:36.292Z,15.18
2023-02-23T18:50:04.456Z,15.16
2023-02-23T18:52:32.585Z,15.15
2023-02-23T18:55:00.572Z,15.14
2023-02-23T18:57:29.113Z,15.14
2023-02-23T18:59:56.999Z,15.13
2023-02-23T19:02:25.112Z,15.13
2023-02-23T19:04:53.445Z,15.13
2023-02-23T19:07:21.389Z,15.13
2023-02-23T19:09:49.332Z,15.14
2023-02-23T19:12:17.375Z,15.16
2023-02-23T19:14:49.542Z,15.17
2023-02-23T19:17:18.062Z,15.18
2023-02-23T19:19:46.085Z,15.19
2023-02-23T19:22:14.285Z,15.21
2023-02-23T19:24:42.720Z,15.23
2023-02-23T19:27:10.686Z,15.26
2023-02-23T19:29:38.810Z,15.27
2023-02-23T19:32:07.338Z,15.27
2023-02-23T19:34:35.947Z,15.26
2023-02-23T19:37:03.946Z,15.27
2023-02-23T19:39:32.249Z,15.25
2023-02-23T19:42:00.207Z,15.24
2023-02-23T19:44:28.157Z,15.22
2023-02-23T19:46:56.260Z,15.21
2023-02-23T19:49:24.873Z,15.20
2023-02-23T19:51:53.066Z,15.19
2023-02-23T19:54:21.515Z,15.19
2023-02-23T19:56:51.547Z,15.19
2023-02-23T19:59:19.545Z,15.19
2023-02-23T20:01:48.018Z,15.19
2023-02-23T20:04:16.122Z,15.18
2023-02-23T20:06:44.519Z,15.18
2023-02-23T20:09:13.558Z,15.17
2023-02-23T20:11:41.825Z,15.17
2023-02-23T20:14:10.686Z,15.16
2023-02-23T20:16:38.831Z,15.16
2023-02-23T20:19:06.834Z,15.15
2023-02-23T20:21:34.993Z,15.15
2023-02-23T20:24:03.303Z,15.14
2023-02-23T20:26:32.807Z,15.13
2023-02-23T20:29:02.169Z,15.11
2023-02-23T20:31:32.183Z,15.10
2023-02-23T20:34:02.289Z,15.09
2023-02-23T20:36:30.586Z,15.07
2023-02-23T20:38:59.049Z,15.06
2023-02-23T20:41:27.159Z,15.06
2023-02-23T20:43:55.582Z,15.05
2023-02-23T20:46:23.970Z,15.02
2023-02-23T20:48:52.493Z,15.00
2023-02-23T20:51:20.768Z,14.97
2023-02-23T20:53:49.354Z,14.94
2023-02-23T20:56:18.635Z,14.91
2023-02-23T20:58:46.867Z,14.88
2023-02-23T21:01:16.168Z,14.86
2023-02-23T21:03:44.278Z,14.82
2023-02-23T21:06:12.601Z,14.79
2023-02-23T21:08:41.232Z,14.76
2023-02-23T21:11:09.212Z,14.73
2023-02-23T21:13:37.297Z,14.69
2023-02-23T21:16:05.665Z,14.65
2023-02-23T21:18:33.961Z,14.61
2023-02-23T21:21:02.262Z,14.59
2023-02-23T21:23:30.313Z,14.56
2023-02-23T21:25:58.458Z,14.54
2023-02-23T21:28:26.812Z,14.52
2023-02-23T21:30:56.011Z,14.50
2023-02-23T21:33:24.210Z,14.48
2023-02-23T21:35:52.144Z,14.48
2023-02-23T21:38:20.195Z,14.46
2023-02-23T21:40:48.187Z,14.44
2023-02-23T21:43:16.192Z,14.39
2023-02-23T21:45:44.583Z,14.34
2023-02-23T21:48:13.474Z,14.29
2023-02-23T21:50:42.674Z,14.23
2023-02-23T21:53:10.748Z,14.19
2023-02-23T21:55:39.334Z,14.15
2023-02-23T21:58:07.836Z,14.11
2023-02-23T22:00:36.394Z,14.08
2023-02-23T22:03:04.482Z,14.05
2023-02-23T22:05:33.960Z,14.02
2023-02-23T22:08:02.327Z,13.99
2023-02-23T22:10:31.094Z,13.97
2023-02-23T22:12:59.384Z,13.95
2023-02-23T22:15:27.818Z,13.93
2023-02-23T22:17:56.461Z,13.92
2023-02-23T22:20:25.259Z,13.91
2023-02-23T22:22:53.548Z,13.89
2023-02-23T22:25:21.876Z,13.87
2023-02-23T22:27:49.822Z,13.85
2023-02-23T22:30:18.333Z,13.82
2023-02-23T22:32:46.514Z,13.80
2023-02-23T22:35:14.705Z,13.79
2023-02-23T22:37:42.890Z,13.77
2023-02-23T22:40:11.199Z,13.75
2023-02-23T22:42:39.290Z,13.73
2023-02-23T22:45:07.791Z,13.71
2023-02-23T22:47:35.894Z,13.69
2023-02-23T22:50:03.911Z,13.68
2023-02-23T22:52:32.437Z,13.66
2023-02-23T22:55:00.833Z,13.66
2023-02-23T22:57:28.889Z,13.66
2023-02-23T22:59:57.389Z,13.66
2023-02-23T23:02:25.889Z,13.65
2023-02-23T23:04:53.978Z,13.64
2023-02-23T23:07:22.105Z,13.64
2023-02-23T23:09:50.003Z,13.64
2023-02-23T23:12:19.095Z,13.64
2023-02-23T23:14:47.493Z,13.63
2023-02-23T23:17:15.638Z,13.62
2023-02-23T23:19:44.145Z,13.61
2023-02-23T23:22:12.207Z,13.59
2023-02-23T23:24:40.899Z,13.56
2023-02-23T23:27:08.813Z,13.54
2023-02-23T23:29:37.437Z,13.52
2023-02-23T23:32:05.700Z,13.50
2023-02-23T23:34:33.995Z,13.48
2023-02-23T23:37:02.720Z,13.46
2023-02-23T23:39:30.920Z,13.44
2023-02-23T23:41:58.912Z,13.42
2023-02-23T23:44:26.916Z,13.40
2023-02-23T23:46:55.383Z,13.39
2023-02-23T23:49:24.287Z,13.38
2023-02-23T23:51:53.496Z,13.35
2023-02-23T23:54:29.478Z,13.33
2023-02-23T23:56:58.761Z,13.31
2023-02-23T23:59:27.541Z,13.29
